This is the latest recevied weather packets stored in our database for station/object WC4PEM-8. If no packets are shown the sender has not sent any weather packets the latest 10 day(s).
| Time | Temp. | Humidity | Pressure | Rain* | Wind** | Luminosity | Snow |
|---|---|---|---|---|---|---|---|
| 1778072744 | 23.89° C | 83% | 1016.8 hPa | 0 mm | - | - | - |
| 1778072498 | 23.89° C | 83% | 1016.8 hPa | 0 mm | - | - | - |
| 1778072454 | 23.89° C | 83% | 1016.8 hPa | 0 mm | - | - | - |
| 1778072155 | 23.89° C | 84% | 1016.8 hPa | 0 mm | - | - | - |
| 1778071944 | 23.33° C | 85% | 1016.7 hPa | 0 mm | - | - | - |
| 1778071854 | 23.33° C | 85% | 1016.7 hPa | 0 mm | - | - | - |
| 1778071765 | 22.22° C | 87% | 1016.4 hPa | 0 mm | - | - | - |
| 1778071555 | 23.33° C | 85% | 1016.6 hPa | 0 mm | - | - | - |
| 1778071254 | 22.78° C | 86% | 1016.5 hPa | 0 mm | - | - | - |
| 1778070985 | 22.22° C | 87% | 1016.4 hPa | 0 mm | - | - | - |
| 1778070954 | 22.78° C | 87% | 1016.4 hPa | 0 mm | - | - | - |
| 1778070654 | 22.22° C | 87% | 1016.4 hPa | 0 mm | - | - | - |
| 1778070355 | 22.22° C | 88% | 1016.5 hPa | 0 mm | - | - | - |
| 1778070318 | 21.11° C | 90% | 1016.4 hPa | 0 mm | - | - | - |
| 1778070086 | 21.67° C | 89% | 1016.6 hPa | 0 mm | - | - | - |
| 1778070054 | 21.67° C | 89% | 1016.6 hPa | 0 mm | - | - | - |
| 1778069755 | 21.67° C | 89% | 1016.3 hPa | 0 mm | - | - | - |
| 1778069520 | 21.11° C | 89% | 1016.3 hPa | 0 mm | - | - | - |
| 1778069455 | 21.11° C | 89% | 1016.3 hPa | 0 mm | - | - | - |
| 1778069155 | 21.11° C | 90% | 1016.4 hPa | 0 mm | - | - | - |
| 1778068893 | 21.11° C | 90% | 1016.3 hPa | 0 mm | - | - | - |
| 1778068855 | 21.11° C | 90% | 1016.3 hPa | 0 mm | - | - | - |
| 1778068555 | 21.11° C | 90% | 1016.2 hPa | 0 mm | - | - | - |
| 1778068469 | 20.56° C | 91% | 1016.4 hPa | 0 mm | - | - | - |
| 1778068301 | 20.56° C | 91% | 1016.4 hPa | 0 mm | - | - | - |
* Rain latest hour (hover to see other rain measurements)
** Current wind speed in m/s (hover to see current wind gust speed)